sensor_id;sensor_type;location;lat;lon;timestamp;pressure;altitude;pressure_sealevel;temperature;humidity
74346;BME280;62776;50.518;6.732;2023-09-12T00:00:14;96336.72;;;20.98;100.00
74346;BME280;62776;50.518;6.732;2023-09-12T00:03:01;96336.72;;;20.98;100.00
74346;BME280;62776;50.518;6.732;2023-09-12T00:05:54;96352.47;;;20.84;100.00
74346;BME280;62776;50.518;6.732;2023-09-12T00:08:40;96341.56;;;20.90;100.00
74346;BME280;62776;50.518;6.732;2023-09-12T00:11:26;96343.25;;;20.91;100.00
74346;BME280;62776;50.518;6.732;2023-09-12T00:14:18;96343.84;;;20.80;100.00
74346;BME280;62776;50.518;6.732;2023-09-12T00:17:04;96340.19;;;20.83;100.00
74346;BME280;62776;50.518;6.732;2023-09-12T00:19:51;96341.28;;;20.79;100.00
74346;BME280;62776;50.518;6.732;2023-09-12T00:22:37;96337.03;;;20.76;100.00
74346;BME280;62776;50.518;6.732;2023-09-12T00:25:23;96335.41;;;20.74;100.00
74346;BME280;62776;50.518;6.732;2023-09-12T00:28:09;96330.19;;;20.72;100.00
74346;BME280;62776;50.518;6.732;2023-09-12T00:30:55;96322.38;;;20.71;100.00
74346;BME280;62776;50.518;6.732;2023-09-12T00:33:41;96325.00;;;20.71;100.00
74346;BME280;62776;50.518;6.732;2023-09-12T00:36:29;96317.09;;;20.71;100.00
74346;BME280;62776;50.518;6.732;2023-09-12T00:39:15;96313.47;;;20.72;100.00
74346;BME280;62776;50.518;6.732;2023-09-12T00:42:01;96316.91;;;20.74;100.00
74346;BME280;62776;50.518;6.732;2023-09-12T00:44:47;96321.19;;;20.76;100.00
74346;BME280;62776;50.518;6.732;2023-09-12T00:47:34;96319.38;;;20.77;100.00
74346;BME280;62776;50.518;6.732;2023-09-12T00:50:23;96322.09;;;20.75;100.00
74346;BME280;62776;50.518;6.732;2023-09-12T00:53:11;96316.72;;;20.77;100.00
74346;BME280;62776;50.518;6.732;2023-09-12T00:55:59;96309.91;;;20.73;100.00
74346;BME280;62776;50.518;6.732;2023-09-12T00:58:46;96296.72;;;20.73;100.00
74346;BME280;62776;50.518;6.732;2023-09-12T01:01:34;96297.81;;;20.69;100.00
74346;BME280;62776;50.518;6.732;2023-09-12T01:04:20;96304.97;;;20.67;100.00
74346;BME280;62776;50.518;6.732;2023-09-12T01:07:07;96288.41;;;20.63;100.00
74346;BME280;62776;50.518;6.732;2023-09-12T01:09:53;96293.97;;;20.58;100.00
74346;BME280;62776;50.518;6.732;2023-09-12T01:12:39;96281.94;;;20.53;100.00
74346;BME280;62776;50.518;6.732;2023-09-12T01:15:25;96292.31;;;20.40;100.00
74346;BME280;62776;50.518;6.732;2023-09-12T01:18:11;96289.22;;;20.32;100.00
74346;BME280;62776;50.518;6.732;2023-09-12T01:24:22;96272.94;;;20.24;100.00
74346;BME280;62776;50.518;6.732;2023-09-12T01:27:27;96265.63;;;20.12;100.00
74346;BME280;62776;50.518;6.732;2023-09-12T01:30:18;96259.03;;;20.03;100.00
74346;BME280;62776;50.518;6.732;2023-09-12T01:33:07;96271.94;;;19.92;100.00
74346;BME280;62776;50.518;6.732;2023-09-12T01:35:54;96279.94;;;19.91;100.00
74346;BME280;62776;50.518;6.732;2023-09-12T01:38:40;96284.59;;;19.86;100.00
74346;BME280;62776;50.518;6.732;2023-09-12T01:41:27;96279.31;;;19.86;100.00
74346;BME280;62776;50.518;6.732;2023-09-12T01:44:17;96284.66;;;19.84;100.00
74346;BME280;62776;50.518;6.732;2023-09-12T01:47:05;96276.91;;;19.81;100.00
74346;BME280;62776;50.518;6.732;2023-09-12T01:49:56;96272.03;;;19.74;100.00
74346;BME280;62776;50.518;6.732;2023-09-12T01:52:43;96272.03;;;19.74;100.00
74346;BME280;62776;50.518;6.732;2023-09-12T01:55:30;96276.44;;;19.73;100.00
74346;BME280;62776;50.518;6.732;2023-09-12T01:58:17;96276.44;;;19.73;100.00
74346;BME280;62776;50.518;6.732;2023-09-12T02:01:04;96270.47;;;19.70;100.00
74346;BME280;62776;50.518;6.732;2023-09-12T02:03:52;96274.25;;;19.64;100.00
74346;BME280;62776;50.518;6.732;2023-09-12T02:06:38;96275.13;;;19.65;100.00
74346;BME280;62776;50.518;6.732;2023-09-12T02:09:25;96273.44;;;19.64;100.00
74346;BME280;62776;50.518;6.732;2023-09-12T02:12:11;96265.66;;;19.61;100.00
74346;BME280;62776;50.518;6.732;2023-09-12T02:14:57;96269.31;;;19.58;100.00
74346;BME280;62776;50.518;6.732;2023-09-12T02:17:43;96263.47;;;19.52;100.00
74346;BME280;62776;50.518;6.732;2023-09-12T02:20:31;96270.06;;;19.43;100.00
74346;BME280;62776;50.518;6.732;2023-09-12T02:23:17;96275.47;;;19.40;100.00
74346;BME280;62776;50.518;6.732;2023-09-12T02:26:03;96267.84;;;19.34;100.00
74346;BME280;62776;50.518;6.732;2023-09-12T02:28:49;96280.41;;;19.29;100.00
74346;BME280;62776;50.518;6.732;2023-09-12T02:31:36;96280.47;;;19.27;100.00
74346;BME280;62776;50.518;6.732;2023-09-12T02:34:22;96287.75;;;19.22;100.00
74346;BME280;62776;50.518;6.732;2023-09-12T02:37:09;96277.38;;;19.19;100.00
74346;BME280;62776;50.518;6.732;2023-09-12T02:39:55;96279.38;;;19.14;100.00
74346;BME280;62776;50.518;6.732;2023-09-12T02:42:41;96271.47;;;19.14;100.00
74346;BME280;62776;50.518;6.732;2023-09-12T02:45:27;96269.91;;;19.10;100.00
74346;BME280;62776;50.518;6.732;2023-09-12T02:48:16;96271.19;;;19.02;100.00
74346;BME280;62776;50.518;6.732;2023-09-12T02:51:02;96254.31;;;19.06;100.00
74346;BME280;62776;50.518;6.732;2023-09-12T02:53:48;96265.72;;;19.06;100.00
74346;BME280;62776;50.518;6.732;2023-09-12T02:56:34;96263.16;;;19.05;100.00
74346;BME280;62776;50.518;6.732;2023-09-12T02:59:20;96266.94;;;18.99;100.00
74346;BME280;62776;50.518;6.732;2023-09-12T03:02:07;96270.72;;;18.94;100.00
74346;BME280;62776;50.518;6.732;2023-09-12T03:04:53;96265.38;;;18.95;100.00
74346;BME280;62776;50.518;6.732;2023-09-12T03:07:39;96264.53;;;18.95;100.00
74346;BME280;62776;50.518;6.732;2023-09-12T03:10:28;96272.00;;;18.85;100.00
74346;BME280;62776;50.518;6.732;2023-09-12T03:13:14;96272.47;;;18.93;100.00
74346;BME280;62776;50.518;6.732;2023-09-12T03:16:01;96277.69;;;18.95;100.00
74346;BME280;62776;50.518;6.732;2023-09-12T03:18:47;96271.28;;;19.00;100.00
74346;BME280;62776;50.518;6.732;2023-09-12T03:21:34;96263.91;;;19.07;100.00
74346;BME280;62776;50.518;6.732;2023-09-12T03:24:20;96258.34;;;19.13;100.00
74346;BME280;62776;50.518;6.732;2023-09-12T03:27:09;96257.63;;;19.09;100.00
74346;BME280;62776;50.518;6.732;2023-09-12T03:29:55;96267.34;;;19.09;100.00
74346;BME280;62776;50.518;6.732;2023-09-12T03:32:41;96262.75;;;19.12;100.00
74346;BME280;62776;50.518;6.732;2023-09-12T03:35:31;96252.47;;;19.08;100.00
74346;BME280;62776;50.518;6.732;2023-09-12T03:38:17;96262.91;;;19.09;100.00
74346;BME280;62776;50.518;6.732;2023-09-12T03:41:03;96269.59;;;19.16;100.00
74346;BME280;62776;50.518;6.732;2023-09-12T03:43:49;96265.88;;;19.20;100.00
74346;BME280;62776;50.518;6.732;2023-09-12T03:46:35;96256.81;;;19.26;100.00
74346;BME280;62776;50.518;6.732;2023-09-12T03:49:23;96253.50;;;19.22;100.00
74346;BME280;62776;50.518;6.732;2023-09-12T03:52:14;96244.03;;;19.18;100.00
74346;BME280;62776;50.518;6.732;2023-09-12T03:55:01;96236.59;;;19.26;100.00
74346;BME280;62776;50.518;6.732;2023-09-12T03:57:47;96229.84;;;19.21;100.00
74346;BME280;62776;50.518;6.732;2023-09-12T04:00:33;96238.84;;;19.17;100.00
74346;BME280;62776;50.518;6.732;2023-09-12T04:03:19;96228.50;;;19.12;100.00
74346;BME280;62776;50.518;6.732;2023-09-12T04:06:06;96218.53;;;19.19;100.00
74346;BME280;62776;50.518;6.732;2023-09-12T04:08:53;96213.31;;;19.17;100.00
74346;BME280;62776;50.518;6.732;2023-09-12T04:11:40;96221.88;;;19.22;100.00
74346;BME280;62776;50.518;6.732;2023-09-12T04:14:27;96231.63;;;19.20;100.00
74346;BME280;62776;50.518;6.732;2023-09-12T04:17:13;96226.28;;;19.22;100.00
74346;BME280;62776;50.518;6.732;2023-09-12T04:19:59;96221.66;;;19.27;100.00
74346;BME280;62776;50.518;6.732;2023-09-12T04:22:46;96222.34;;;19.30;100.00
74346;BME280;62776;50.518;6.732;2023-09-12T04:25:32;96207.94;;;19.37;100.00
74346;BME280;62776;50.518;6.732;2023-09-12T04:28:22;96202.38;;;19.43;100.00
74346;BME280;62776;50.518;6.732;2023-09-12T04:31:08;96213.53;;;19.49;100.00
74346;BME280;62776;50.518;6.732;2023-09-12T04:33:55;96217.28;;;19.45;100.00
74346;BME280;62776;50.518;6.732;2023-09-12T04:36:41;96212.06;;;19.43;100.00
74346;BME280;62776;50.518;6.732;2023-09-12T04:39:27;96217.09;;;19.48;100.00
74346;BME280;62776;50.518;6.732;2023-09-12T04:42:13;96212.69;;;19.48;100.00
74346;BME280;62776;50.518;6.732;2023-09-12T04:45:00;96211.00;;;19.47;100.00
74346;BME280;62776;50.518;6.732;2023-09-12T04:47:46;96211.66;;;19.51;100.00
74346;BME280;62776;50.518;6.732;2023-09-12T04:50:32;96210.75;;;19.52;100.00
74346;BME280;62776;50.518;6.732;2023-09-12T04:53:18;96209.03;;;19.51;100.00
74346;BME280;62776;50.518;6.732;2023-09-12T04:56:04;96210.91;;;19.49;100.00
74346;BME280;62776;50.518;6.732;2023-09-12T04:59:07;96211.44;;;19.38;100.00
74346;BME280;62776;50.518;6.732;2023-09-12T05:01:54;96213.63;;;19.47;100.00
74346;BME280;62776;50.518;6.732;2023-09-12T05:04:42;96226.81;;;19.47;100.00
74346;BME280;62776;50.518;6.732;2023-09-12T05:07:28;96228.28;;;19.53;100.00
74346;BME280;62776;50.518;6.732;2023-09-12T05:10:14;96236.19;;;19.53;100.00
74346;BME280;62776;50.518;6.732;2023-09-12T05:13:01;96237.56;;;19.42;100.00
74346;BME280;62776;50.518;6.732;2023-09-12T05:15:48;96248.13;;;19.42;100.00
74346;BME280;62776;50.518;6.732;2023-09-12T05:18:37;96245.63;;;19.39;100.00
74346;BME280;62776;50.518;6.732;2023-09-12T05:21:23;96246.56;;;19.38;100.00
74346;BME280;62776;50.518;6.732;2023-09-12T05:24:10;96245.72;;;19.38;100.00
74346;BME280;62776;50.518;6.732;2023-09-12T05:26:56;96257.25;;;19.35;100.00
74346;BME280;62776;50.518;6.732;2023-09-12T05:29:42;96257.47;;;19.31;100.00
74346;BME280;62776;50.518;6.732;2023-09-12T05:32:28;96255.81;;;19.28;100.00
74346;BME280;62776;50.518;6.732;2023-09-12T05:35:14;96263.66;;;19.30;100.00
74346;BME280;62776;50.518;6.732;2023-09-12T05:38:00;96261.25;;;19.25;100.00
74346;BME280;62776;50.518;6.732;2023-09-12T05:40:47;96254.28;;;19.24;100.00
74346;BME280;62776;50.518;6.732;2023-09-12T05:43:37;96252.72;;;19.20;100.00
74346;BME280;62776;50.518;6.732;2023-09-12T05:46:23;96259.78;;;19.20;100.00
74346;BME280;62776;50.518;6.732;2023-09-12T05:49:09;96263.25;;;19.20;100.00
74346;BME280;62776;50.518;6.732;2023-09-12T05:51:56;96263.97;;;19.24;100.00
74346;BME280;62776;50.518;6.732;2023-09-12T05:54:42;96264.66;;;19.27;100.00
74346;BME280;62776;50.518;6.732;2023-09-12T05:57:29;96264.28;;;19.35;100.00
74346;BME280;62776;50.518;6.732;2023-09-12T06:00:19;96270.22;;;19.40;100.00
74346;BME280;62776;50.518;6.732;2023-09-12T06:03:05;96284.88;;;19.46;100.00
74346;BME280;62776;50.518;6.732;2023-09-12T06:05:52;96281.94;;;19.52;100.00
74346;BME280;62776;50.518;6.732;2023-09-12T06:08:39;96282.56;;;19.57;100.00
74346;BME280;62776;50.518;6.732;2023-09-12T06:11:25;96274.66;;;19.57;100.00
74346;BME280;62776;50.518;6.732;2023-09-12T06:14:11;96270.16;;;19.59;100.00
74346;BME280;62776;50.518;6.732;2023-09-12T06:16:57;96264.72;;;19.62;100.00
74346;BME280;62776;50.518;6.732;2023-09-12T06:19:43;96268.91;;;19.66;100.00
74346;BME280;62776;50.518;6.732;2023-09-12T06:22:29;96272.41;;;19.66;100.00
74346;BME280;62776;50.518;6.732;2023-09-12T06:25:15;96268.53;;;19.73;100.00
74346;BME280;62776;50.518;6.732;2023-09-12T06:28:01;96267.22;;;19.82;100.00
74346;BME280;62776;50.518;6.732;2023-09-12T06:30:47;96260.63;;;19.90;100.00
74346;BME280;62776;50.518;6.732;2023-09-12T06:33:33;96262.38;;;19.90;100.00
74346;BME280;62776;50.518;6.732;2023-09-12T06:36:19;96265.78;;;19.92;100.00
74346;BME280;62776;50.518;6.732;2023-09-12T06:39:05;96262.13;;;19.94;100.00
74346;BME280;62776;50.518;6.732;2023-09-12T06:41:52;96270.00;;;19.96;100.00
74346;BME280;62776;50.518;6.732;2023-09-12T06:44:38;96270.34;;;20.06;100.00
74346;BME280;62776;50.518;6.732;2023-09-12T06:47:24;96272.78;;;20.10;100.00
74346;BME280;62776;50.518;6.732;2023-09-12T06:50:12;96267.41;;;20.12;100.00
74346;BME280;62776;50.518;6.732;2023-09-12T06:52:58;96268.50;;;20.25;100.00
74346;BME280;62776;50.518;6.732;2023-09-12T06:55:45;96268.09;;;20.32;100.00
74346;BME280;62776;50.518;6.732;2023-09-12T06:58:31;96264.84;;;20.27;100.00
74346;BME280;62776;50.518;6.732;2023-09-12T07:01:17;96260.78;;;20.37;100.00
74346;BME280;62776;50.518;6.732;2023-09-12T07:04:03;96263.00;;;20.45;100.00
74346;BME280;62776;50.518;6.732;2023-09-12T07:06:50;96263.88;;;20.45;100.00
74346;BME280;62776;50.518;6.732;2023-09-12T07:09:37;96265.50;;;20.48;100.00
74346;BME280;62776;50.518;6.732;2023-09-12T07:12:23;96260.81;;;20.53;100.00
74346;BME280;62776;50.518;6.732;2023-09-12T07:15:09;96267.28;;;20.63;100.00
74346;BME280;62776;50.518;6.732;2023-09-12T07:17:56;96266.28;;;20.66;100.00
74346;BME280;62776;50.518;6.732;2023-09-12T07:20:42;96269.09;;;20.63;100.00
74346;BME280;62776;50.518;6.732;2023-09-12T07:23:29;96260.31;;;20.62;100.00
74346;BME280;62776;50.518;6.732;2023-09-12T07:26:15;96267.13;;;20.66;100.00
74346;BME280;62776;50.518;6.732;2023-09-12T07:29:01;96265.59;;;20.78;100.00
74346;BME280;62776;50.518;6.732;2023-09-12T07:31:53;96256.22;;;20.88;100.00
74346;BME280;62776;50.518;6.732;2023-09-12T07:34:39;96254.88;;;20.96;100.00
74346;BME280;62776;50.518;6.732;2023-09-12T07:37:26;96255.16;;;21.07;100.00
74346;BME280;62776;50.518;6.732;2023-09-12T07:40:12;96265.97;;;21.18;100.00
74346;BME280;62776;50.518;6.732;2023-09-12T07:42:58;96263.09;;;21.23;100.00
74346;BME280;62776;50.518;6.732;2023-09-12T07:45:44;96261.78;;;21.30;100.00
74346;BME280;62776;50.518;6.732;2023-09-12T07:48:30;96255.41;;;21.34;100.00
74346;BME280;62776;50.518;6.732;2023-09-12T07:51:16;96252.75;;;21.34;100.00
74346;BME280;62776;50.518;6.732;2023-09-12T07:54:06;96264.78;;;21.40;100.00
74346;BME280;62776;50.518;6.732;2023-09-12T07:56:52;96260.81;;;21.47;100.00
74346;BME280;62776;50.518;6.732;2023-09-12T07:59:38;96270.19;;;21.52;100.00
74346;BME280;62776;50.518;6.732;2023-09-12T08:02:25;96273.41;;;21.57;100.00
74346;BME280;62776;50.518;6.732;2023-09-12T08:05:11;96262.47;;;21.63;100.00
74346;BME280;62776;50.518;6.732;2023-09-12T08:08:01;96264.38;;;21.61;100.00
74346;BME280;62776;50.518;6.732;2023-09-12T08:10:53;96268.81;;;21.61;100.00
74346;BME280;62776;50.518;6.732;2023-09-12T08:13:40;96263.63;;;21.73;100.00
74346;BME280;62776;50.518;6.732;2023-09-12T08:16:26;96268.75;;;21.76;100.00
74346;BME280;62776;50.518;6.732;2023-09-12T08:19:13;96268.16;;;21.87;100.00
74346;BME280;62776;50.518;6.732;2023-09-12T08:21:59;96269.22;;;21.99;100.00
74346;BME280;62776;50.518;6.732;2023-09-12T08:24:45;96274.84;;;22.08;100.00
74346;BME280;62776;50.518;6.732;2023-09-12T08:27:32;96269.06;;;22.16;100.00
74346;BME280;62776;50.518;6.732;2023-09-12T08:30:18;96272.00;;;22.25;100.00
74346;BME280;62776;50.518;6.732;2023-09-12T08:33:06;96273.59;;;22.28;100.00
74346;BME280;62776;50.518;6.732;2023-09-12T08:35:55;96279.19;;;22.38;100.00
74346;BME280;62776;50.518;6.732;2023-09-12T08:38:46;96282.34;;;22.44;100.00
74346;BME280;62776;50.518;6.732;2023-09-12T08:44:30;96280.94;;;22.67;100.00
74346;BME280;62776;50.518;6.732;2023-09-12T08:47:19;96289.16;;;22.76;100.00
74346;BME280;62776;50.518;6.732;2023-09-12T08:50:10;96289.81;;;22.80;100.00
74346;BME280;62776;50.518;6.732;2023-09-12T08:52:57;96287.44;;;22.89;100.00
74346;BME280;62776;50.518;6.732;2023-09-12T08:55:44;96281.09;;;22.92;100.00
74346;BME280;62776;50.518;6.732;2023-09-12T08:58:32;96286.94;;;22.97;100.00
74346;BME280;62776;50.518;6.732;2023-09-12T09:01:19;96277.25;;;23.10;100.00
74346;BME280;62776;50.518;6.732;2023-09-12T09:04:06;96288.34;;;23.17;100.00
74346;BME280;62776;50.518;6.732;2023-09-12T09:06:53;96288.81;;;23.23;100.00
74346;BME280;62776;50.518;6.732;2023-09-12T09:09:40;96289.03;;;23.33;100.00
74346;BME280;62776;50.518;6.732;2023-09-12T09:12:27;96302.13;;;23.36;100.00
74346;BME280;62776;50.518;6.732;2023-09-12T09:15:29;96290.09;;;23.30;100.00
74346;BME280;62776;50.518;6.732;2023-09-12T09:18:15;96290.63;;;23.49;100.00
74346;BME280;62776;50.518;6.732;2023-09-12T09:21:18;96292.97;;;23.54;100.00
74346;BME280;62776;50.518;6.732;2023-09-12T09:24:10;96300.94;;;23.81;100.00
74346;BME280;62776;50.518;6.732;2023-09-12T09:26:56;96299.28;;;23.92;100.00
74346;BME280;62776;50.518;6.732;2023-09-12T09:29:49;96300.22;;;23.91;100.00
74346;BME280;62776;50.518;6.732;2023-09-12T09:32:35;96302.56;;;23.96;100.00
74346;BME280;62776;50.518;6.732;2023-09-12T09:35:21;96306.38;;;23.92;100.00
74346;BME280;62776;50.518;6.732;2023-09-12T09:38:08;96310.38;;;23.85;100.00
74346;BME280;62776;50.518;6.732;2023-09-12T09:40:54;96316.22;;;23.77;100.00
74346;BME280;62776;50.518;6.732;2023-09-12T09:43:42;96311.97;;;23.75;100.00
74346;BME280;62776;50.518;6.732;2023-09-12T09:46:28;96320.81;;;23.88;100.00
74346;BME280;62776;50.518;6.732;2023-09-12T09:49:15;96317.75;;;23.94;100.00
74346;BME280;62776;50.518;6.732;2023-09-12T09:52:06;96321.19;;;24.08;100.00
74346;BME280;62776;50.518;6.732;2023-09-12T09:54:52;96326.47;;;24.23;100.00
74346;BME280;62776;50.518;6.732;2023-09-12T09:57:38;96322.94;;;24.22;100.00
74346;BME280;62776;50.518;6.732;2023-09-12T10:00:25;96315.19;;;24.32;100.00
74346;BME280;62776;50.518;6.732;2023-09-12T10:03:19;96313.25;;;24.34;100.00
74346;BME280;62776;50.518;6.732;2023-09-12T10:06:08;96316.16;;;24.31;100.00
74346;BME280;62776;50.518;6.732;2023-09-12T10:08:56;96316.97;;;24.19;100.00
74346;BME280;62776;50.518;6.732;2023-09-12T10:11:46;96318.50;;;24.23;100.00
74346;BME280;62776;50.518;6.732;2023-09-12T10:14:33;96323.03;;;24.21;100.00
74346;BME280;62776;50.518;6.732;2023-09-12T10:17:37;96320.56;;;24.18;100.00
74346;BME280;62776;50.518;6.732;2023-09-12T10:20:29;96317.44;;;24.38;100.00
74346;BME280;62776;50.518;6.732;2023-09-12T10:23:38;96325.84;;;24.57;100.00
74346;BME280;62776;50.518;6.732;2023-09-12T10:26:28;96320.31;;;24.85;100.00
74346;BME280;62776;50.518;6.732;2023-09-12T10:29:15;96315.41;;;25.04;100.00
74346;BME280;62776;50.518;6.732;2023-09-12T10:32:01;96313.81;;;24.89;100.00
74346;BME280;62776;50.518;6.732;2023-09-12T10:34:49;96315.19;;;24.95;100.00
74346;BME280;62776;50.518;6.732;2023-09-12T10:37:35;96314.88;;;24.99;100.00
74346;BME280;62776;50.518;6.732;2023-09-12T10:40:24;96307.97;;;24.97;100.00
74346;BME280;62776;50.518;6.732;2023-09-12T10:43:12;96310.81;;;25.06;100.00
74346;BME280;62776;50.518;6.732;2023-09-12T10:46:01;96314.63;;;25.15;100.00
74346;BME280;62776;50.518;6.732;2023-09-12T10:48:50;96305.03;;;25.25;100.00
74346;BME280;62776;50.518;6.732;2023-09-12T10:51:44;96310.97;;;25.29;100.00
74346;BME280;62776;50.518;6.732;2023-09-12T10:54:41;96306.06;;;25.35;100.00
74346;BME280;62776;50.518;6.732;2023-09-12T10:57:28;96306.47;;;25.42;100.00
74346;BME280;62776;50.518;6.732;2023-09-12T11:00:14;96303.91;;;25.40;99.07
74346;BME280;62776;50.518;6.732;2023-09-12T11:06:20;96305.72;;;25.16;100.00
74346;BME280;62776;50.518;6.732;2023-09-12T11:09:26;96302.56;;;25.35;100.00
74346;BME280;62776;50.518;6.732;2023-09-12T11:12:34;96312.63;;;25.42;99.44
74346;BME280;62776;50.518;6.732;2023-09-12T11:15:23;96316.75;;;25.59;97.05
74346;BME280;62776;50.518;6.732;2023-09-12T11:18:10;96305.16;;;25.60;96.04
74346;BME280;62776;50.518;6.732;2023-09-12T11:21:00;96296.75;;;25.53;95.27
74346;BME280;62776;50.518;6.732;2023-09-12T11:23:54;96298.97;;;25.59;98.68
74346;BME280;62776;50.518;6.732;2023-09-12T11:26:58;96296.19;;;25.61;97.56
74346;BME280;62776;50.518;6.732;2023-09-12T11:29:46;96289.97;;;25.73;94.99
74346;BME280;62776;50.518;6.732;2023-09-12T11:32:36;96288.72;;;25.66;93.13
74346;BME280;62776;50.518;6.732;2023-09-12T11:35:27;96287.13;;;25.63;91.34
74346;BME280;62776;50.518;6.732;2023-09-12T11:38:30;96281.94;;;25.62;96.28
74346;BME280;62776;50.518;6.732;2023-09-12T11:41:39;96294.84;;;25.79;93.04
74346;BME280;62776;50.518;6.732;2023-09-12T11:44:26;96292.69;;;25.84;92.17
74346;BME280;62776;50.518;6.732;2023-09-12T11:47:13;96289.69;;;26.00;92.78
74346;BME280;62776;50.518;6.732;2023-09-12T11:50:00;96299.53;;;26.10;89.39
74346;BME280;62776;50.518;6.732;2023-09-12T11:52:46;96298.44;;;26.36;89.49
74346;BME280;62776;50.518;6.732;2023-09-12T11:55:59;96297.00;;;26.44;91.22
74346;BME280;62776;50.518;6.732;2023-09-12T11:58:46;96309.09;;;26.25;83.50
74346;BME280;62776;50.518;6.732;2023-09-12T12:01:33;96301.31;;;25.99;85.69
74346;BME280;62776;50.518;6.732;2023-09-12T12:04:25;96306.16;;;25.70;87.82
74346;BME280;62776;50.518;6.732;2023-09-12T12:07:11;96313.44;;;25.19;91.63
74346;BME280;62776;50.518;6.732;2023-09-12T12:09:58;96310.72;;;25.57;93.97
74346;BME280;62776;50.518;6.732;2023-09-12T12:12:45;96309.78;;;25.69;91.90
74346;BME280;62776;50.518;6.732;2023-09-12T12:15:34;96308.59;;;25.73;92.09
74346;BME280;62776;50.518;6.732;2023-09-12T12:18:20;96311.94;;;25.64;93.42
74346;BME280;62776;50.518;6.732;2023-09-12T12:21:07;96306.78;;;25.50;93.22
74346;BME280;62776;50.518;6.732;2023-09-12T12:24:01;96305.22;;;25.35;92.48
74346;BME280;62776;50.518;6.732;2023-09-12T12:26:48;96299.19;;;25.44;95.39
74346;BME280;62776;50.518;6.732;2023-09-12T12:29:36;96299.19;;;25.44;96.72
74346;BME280;62776;50.518;6.732;2023-09-12T12:32:23;96300.19;;;25.43;96.64
74346;BME280;62776;50.518;6.732;2023-09-12T12:35:19;96286.97;;;25.17;95.83
74346;BME280;62776;50.518;6.732;2023-09-12T12:38:06;96283.78;;;25.12;96.71
74346;BME280;62776;50.518;6.732;2023-09-12T12:40:52;96285.06;;;25.07;98.08
74346;BME280;62776;50.518;6.732;2023-09-12T12:43:40;96282.44;;;24.94;96.92
74346;BME280;62776;50.518;6.732;2023-09-12T12:46:27;96288.38;;;25.10;100.00
74346;BME280;62776;50.518;6.732;2023-09-12T12:49:19;96294.44;;;25.12;99.03
74346;BME280;62776;50.518;6.732;2023-09-12T12:52:08;96283.34;;;25.18;100.00
74346;BME280;62776;50.518;6.732;2023-09-12T12:55:20;96285.38;;;25.15;98.81
74346;BME280;62776;50.518;6.732;2023-09-12T12:58:08;96277.56;;;25.24;97.15
74346;BME280;62776;50.518;6.732;2023-09-12T13:00:54;96282.84;;;25.37;97.88
74346;BME280;62776;50.518;6.732;2023-09-12T13:03:41;96280.38;;;25.47;98.56
74346;BME280;62776;50.518;6.732;2023-09-12T13:06:27;96283.31;;;25.55;98.96
74346;BME280;62776;50.518;6.732;2023-09-12T13:09:15;96275.34;;;25.55;96.02
74346;BME280;62776;50.518;6.732;2023-09-12T13:12:04;96275.94;;;25.71;96.11
74346;BME280;62776;50.518;6.732;2023-09-12T13:14:50;96279.38;;;25.84;95.62
74346;BME280;62776;50.518;6.732;2023-09-12T13:17:36;96271.16;;;25.87;95.15
74346;BME280;62776;50.518;6.732;2023-09-12T13:20:22;96269.97;;;26.02;94.35
74346;BME280;62776;50.518;6.732;2023-09-12T13:23:10;96260.56;;;26.09;91.02
74346;BME280;62776;50.518;6.732;2023-09-12T13:25:57;96259.47;;;26.12;92.41
74346;BME280;62776;50.518;6.732;2023-09-12T13:28:43;96255.69;;;26.03;89.53
74346;BME280;62776;50.518;6.732;2023-09-12T13:31:29;96261.25;;;26.00;89.29
74346;BME280;62776;50.518;6.732;2023-09-12T13:34:15;96256.88;;;25.99;87.54
74346;BME280;62776;50.518;6.732;2023-09-12T13:37:01;96251.91;;;25.95;85.77
74346;BME280;62776;50.518;6.732;2023-09-12T13:39:54;96256.00;;;25.88;89.57
74346;BME280;62776;50.518;6.732;2023-09-12T13:42:40;96254.31;;;25.63;90.92
74346;BME280;62776;50.518;6.732;2023-09-12T13:45:26;96256.72;;;25.78;90.28
74346;BME280;62776;50.518;6.732;2023-09-12T13:48:13;96253.38;;;25.64;87.58
74346;BME280;62776;50.518;6.732;2023-09-12T13:51:00;96260.63;;;25.62;89.22
74346;BME280;62776;50.518;6.732;2023-09-12T13:53:46;96262.34;;;25.74;89.85
74346;BME280;62776;50.518;6.732;2023-09-12T13:56:32;96259.00;;;25.83;88.12
74346;BME280;62776;50.518;6.732;2023-09-12T13:59:18;96260.03;;;26.04;87.10
74346;BME280;62776;50.518;6.732;2023-09-12T14:02:06;96253.88;;;26.04;86.71
74346;BME280;62776;50.518;6.732;2023-09-12T14:04:52;96244.75;;;26.19;87.45
74346;BME280;62776;50.518;6.732;2023-09-12T14:07:39;96254.94;;;26.25;89.06
74346;BME280;62776;50.518;6.732;2023-09-12T14:10:27;96250.44;;;26.14;89.49
74346;BME280;62776;50.518;6.732;2023-09-12T14:13:13;96247.53;;;26.17;92.42
74346;BME280;62776;50.518;6.732;2023-09-12T14:15:59;96241.13;;;25.96;91.57
74346;BME280;62776;50.518;6.732;2023-09-12T14:18:45;96239.41;;;25.84;92.68
74346;BME280;62776;50.518;6.732;2023-09-12T14:21:31;96252.56;;;25.74;95.19
74346;BME280;62776;50.518;6.732;2023-09-12T14:24:17;96239.94;;;26.00;93.69
74346;BME280;62776;50.518;6.732;2023-09-12T14:27:04;96230.81;;;26.26;92.72
74346;BME280;62776;50.518;6.732;2023-09-12T14:30:06;96225.72;;;26.34;92.29
74346;BME280;62776;50.518;6.732;2023-09-12T14:32:52;96224.94;;;26.45;92.22
74346;BME280;62776;50.518;6.732;2023-09-12T14:35:39;96214.84;;;26.37;86.94
74346;BME280;62776;50.518;6.732;2023-09-12T14:38:26;96221.75;;;26.40;90.91
74346;BME280;62776;50.518;6.732;2023-09-12T14:41:13;96221.41;;;26.67;85.64
74346;BME280;62776;50.518;6.732;2023-09-12T14:43:59;96208.91;;;26.89;83.44
74346;BME280;62776;50.518;6.732;2023-09-12T14:46:45;96208.28;;;27.08;82.24
74346;BME280;62776;50.518;6.732;2023-09-12T14:49:32;96201.66;;;26.91;83.07